createdAt,value
2019-03-30T00:00:28.494Z,84.70
2019-03-30T00:02:57.953Z,85.70
2019-03-30T00:05:27.751Z,85.20
2019-03-30T00:07:57.128Z,85.10
2019-03-30T00:10:26.949Z,85.40
2019-03-30T00:12:56.770Z,85.40
2019-03-30T00:15:26.302Z,84.50
2019-03-30T00:17:55.797Z,84.20
2019-03-30T00:20:25.268Z,85.10
2019-03-30T00:22:55.085Z,85.20
2019-03-30T00:25:24.538Z,85.10
2019-03-30T00:27:54.002Z,84.60
2019-03-30T00:30:23.472Z,85.20
2019-03-30T00:32:52.917Z,85.50
2019-03-30T00:35:22.808Z,85.30
2019-03-30T00:37:52.252Z,85.20
2019-03-30T00:40:21.754Z,85.30
2019-03-30T00:42:51.149Z,85.40
2019-03-30T00:45:21.334Z,86.10
2019-03-30T00:47:50.791Z,85.70
2019-03-30T00:50:20.276Z,85.90
2019-03-30T00:52:49.654Z,85.30
2019-03-30T00:55:19.115Z,84.80
2019-03-30T00:57:48.856Z,85.00
2019-03-30T01:00:20.196Z,84.50
2019-03-30T01:02:49.646Z,84.80
2019-03-30T01:05:19.217Z,85.10
2019-03-30T01:07:49.038Z,85.40
2019-03-30T01:10:18.689Z,85.10
2019-03-30T01:12:48.477Z,84.90
2019-03-30T01:15:17.934Z,85.20
2019-03-30T01:17:48.177Z,84.70
2019-03-30T01:20:17.734Z,86.40
2019-03-30T01:22:47.298Z,88.40
2019-03-30T01:25:16.846Z,89.00
2019-03-30T01:27:46.604Z,90.30
2019-03-30T01:30:22.937Z,90.50
2019-03-30T01:32:48.218Z,90.60
2019-03-30T01:35:17.720Z,90.90
2019-03-30T01:37:47.315Z,91.20
2019-03-30T01:40:16.854Z,91.40
2019-03-30T01:42:47.689Z,91.70
2019-03-30T01:45:17.473Z,92.30
2019-03-30T01:47:47.282Z,92.30
2019-03-30T01:50:18.078Z,91.80
2019-03-30T01:52:47.775Z,92.10
2019-03-30T01:55:18.601Z,92.50
2019-03-30T01:57:48.260Z,92.70
2019-03-30T02:00:18.520Z,92.70
2019-03-30T02:02:47.982Z,93.10
2019-03-30T02:05:17.450Z,93.10
2019-03-30T02:07:47.077Z,93.30
2019-03-30T02:10:26.485Z,93.30
2019-03-30T02:12:55.854Z,93.40
2019-03-30T02:15:25.309Z,93.90
2019-03-30T02:17:54.765Z,94.10
2019-03-30T02:20:37.042Z,94.00
2019-03-30T02:23:06.668Z,94.10
2019-03-30T02:25:36.480Z,94.20
2019-03-30T02:28:07.143Z,94.40
2019-03-30T02:30:37.298Z,94.50
2019-03-30T02:33:06.849Z,94.40
2019-03-30T02:35:36.535Z,94.60
2019-03-30T02:38:06.598Z,94.60
2019-03-30T02:40:36.644Z,94.80
2019-03-30T02:43:06.442Z,94.80
2019-03-30T02:45:36.046Z,94.80
2019-03-30T02:48:05.761Z,94.60
2019-03-30T02:50:48.386Z,95.00
2019-03-30T02:53:06.462Z,95.20
2019-03-30T02:55:36.110Z,95.50
2019-03-30T02:58:05.928Z,95.50
2019-03-30T03:00:35.553Z,95.40
2019-03-30T03:03:05.194Z,95.60
2019-03-30T03:05:34.939Z,95.50
2019-03-30T03:08:04.405Z,95.50
2019-03-30T03:10:33.849Z,95.60
2019-03-30T03:13:03.384Z,95.90
2019-03-30T03:15:33.562Z,96.00
2019-03-30T03:18:02.965Z,95.90
2019-03-30T03:20:32.580Z,96.10
2019-03-30T03:23:02.002Z,96.40
2019-03-30T03:25:31.541Z,96.40
2019-03-30T03:28:00.998Z,96.50
2019-03-30T03:30:30.365Z,96.70
2019-03-30T03:33:00.058Z,96.50
2019-03-30T03:35:29.618Z,96.90
2019-03-30T03:37:59.033Z,97.10
2019-03-30T03:40:28.397Z,97.00
2019-03-30T03:42:58.064Z,97.20
2019-03-30T03:45:28.109Z,97.30
2019-03-30T03:47:57.481Z,97.10
2019-03-30T03:50:47.013Z,97.30
2019-03-30T03:53:17.665Z,97.80
2019-03-30T03:55:47.624Z,97.30
2019-03-30T03:58:18.228Z,97.60
2019-03-30T04:00:49.644Z,97.80
2019-03-30T04:03:19.520Z,97.80
2019-03-30T04:05:49.435Z,98.00
2019-03-30T04:08:19.288Z,98.30
2019-03-30T04:10:49.374Z,98.40
2019-03-30T04:13:18.928Z,98.40
2019-03-30T04:15:48.817Z,98.30
2019-03-30T04:18:19.092Z,98.50
2019-03-30T04:20:49.049Z,98.80
2019-03-30T04:23:18.525Z,98.90
2019-03-30T04:25:48.155Z,98.80
2019-03-30T04:28:17.787Z,99.00
2019-03-30T04:30:47.572Z,98.70
2019-03-30T04:33:17.068Z,99.10
2019-03-30T04:35:46.635Z,99.40
2019-03-30T04:38:16.129Z,99.30
2019-03-30T04:40:45.922Z,99.50
2019-03-30T04:43:15.386Z,99.20
2019-03-30T04:45:45.217Z,99.20
2019-03-30T04:48:14.780Z,99.40
2019-03-30T04:50:44.823Z,99.50
2019-03-30T04:53:14.348Z,99.50
2019-03-30T04:55:43.802Z,99.60
2019-03-30T04:58:13.437Z,99.70
2019-03-30T05:00:42.890Z,99.60
2019-03-30T05:03:12.362Z,99.80
2019-03-30T05:05:43.302Z,99.60
2019-03-30T05:08:13.229Z,99.70
2019-03-30T05:10:42.777Z,99.90
2019-03-30T05:13:12.317Z,99.90
2019-03-30T05:15:41.849Z,99.90
2019-03-30T05:18:11.236Z,99.90
2019-03-30T05:20:40.689Z,99.90
2019-03-30T05:23:10.074Z,99.90
2019-03-30T05:25:39.736Z,99.90
2019-03-30T05:28:09.273Z,99.90
2019-03-30T05:30:39.349Z,99.90
2019-03-30T05:33:08.848Z,99.90
2019-03-30T05:35:38.760Z,99.90
2019-03-30T05:38:08.217Z,99.90
2019-03-30T05:40:37.594Z,99.90
2019-03-30T05:43:07.109Z,99.90
2019-03-30T05:45:36.670Z,99.90
2019-03-30T05:48:06.234Z,99.90
2019-03-30T05:50:35.625Z,99.90
2019-03-30T05:53:05.080Z,99.90
2019-03-30T05:55:34.552Z,99.90
2019-03-30T05:58:04.520Z,99.90
2019-03-30T06:00:34.069Z,99.90
2019-03-30T06:03:03.946Z,99.90
2019-03-30T06:05:33.502Z,99.90
2019-03-30T06:08:03.218Z,99.90
2019-03-30T06:10:32.872Z,99.90
2019-03-30T06:13:03.773Z,99.90
2019-03-30T06:15:33.577Z,99.90
2019-03-30T06:18:03.713Z,99.90
2019-03-30T06:20:33.214Z,99.90
2019-03-30T06:23:02.687Z,99.90
2019-03-30T06:25:32.082Z,99.90
2019-03-30T06:28:01.522Z,99.90
2019-03-30T06:30:31.855Z,99.90
2019-03-30T06:33:01.297Z,99.90
2019-03-30T06:35:30.718Z,99.90
2019-03-30T06:38:00.470Z,99.90
2019-03-30T06:40:30.169Z,99.80
2019-03-30T06:42:59.708Z,99.00
2019-03-30T06:45:29.097Z,99.30
2019-03-30T06:47:58.545Z,98.70
2019-03-30T06:50:28.598Z,98.60
2019-03-30T06:52:58.882Z,98.10
2019-03-30T06:55:28.513Z,97.90
2019-03-30T06:57:57.978Z,97.50
2019-03-30T07:00:35.056Z,97.50
2019-03-30T07:03:06.710Z,97.30
2019-03-30T07:05:43.701Z,97.30
2019-03-30T07:08:17.578Z,96.90
2019-03-30T07:10:48.384Z,96.60
2019-03-30T07:13:18.329Z,96.10
2019-03-30T07:15:49.302Z,96.00
2019-03-30T07:18:19.277Z,95.90
2019-03-30T07:20:48.958Z,95.80
2019-03-30T07:23:18.493Z,95.60
2019-03-30T07:25:48.042Z,94.90
2019-03-30T07:28:17.572Z,94.60
2019-03-30T07:30:47.151Z,94.40
2019-03-30T07:33:16.717Z,94.50
2019-03-30T07:35:46.710Z,94.60
2019-03-30T07:38:16.420Z,94.20
2019-03-30T07:40:45.962Z,93.80
2019-03-30T07:43:15.697Z,93.80
2019-03-30T07:45:45.454Z,93.70
2019-03-30T07:48:14.898Z,93.10
2019-03-30T07:50:44.292Z,92.80
2019-03-30T07:53:25.795Z,93.00
2019-03-30T07:55:44.882Z,92.50
2019-03-30T07:58:14.417Z,92.40
2019-03-30T08:00:44.254Z,91.90
2019-03-30T08:03:14.017Z,92.40
2019-03-30T08:05:43.570Z,91.90
2019-03-30T08:08:13.158Z,92.10
2019-03-30T08:10:42.738Z,91.80
2019-03-30T08:13:12.286Z,91.80
2019-03-30T08:15:41.749Z,92.40
2019-03-30T08:18:11.285Z,91.90
2019-03-30T08:20:40.761Z,91.40
2019-03-30T08:23:10.258Z,91.30
2019-03-30T08:25:39.721Z,92.00
2019-03-30T08:28:09.594Z,91.50
2019-03-30T08:30:39.332Z,91.30
2019-03-30T08:33:08.793Z,91.10
2019-03-30T08:35:38.181Z,91.20
2019-03-30T08:38:07.566Z,90.80
2019-03-30T08:40:36.973Z,91.00
2019-03-30T08:43:06.600Z,91.10
2019-03-30T08:45:36.225Z,90.80
2019-03-30T08:48:05.735Z,90.90
2019-03-30T08:50:35.270Z,90.40
2019-03-30T08:53:05.128Z,90.20
2019-03-30T08:55:34.580Z,90.20
2019-03-30T08:58:04.057Z,90.50
2019-03-30T09:00:41.078Z,90.60
2019-03-30T09:03:10.741Z,90.20
2019-03-30T09:05:40.425Z,90.40
2019-03-30T09:08:10.193Z,89.30
2019-03-30T09:10:39.950Z,88.20
2019-03-30T09:13:09.473Z,87.70
2019-03-30T09:15:39.061Z,87.10
2019-03-30T09:18:08.993Z,86.80
2019-03-30T09:20:38.559Z,85.90
2019-03-30T09:23:08.070Z,86.60
2019-03-30T09:25:37.523Z,85.90
2019-03-30T09:28:07.354Z,84.80
2019-03-30T09:30:36.865Z,84.60
2019-03-30T09:33:06.854Z,83.80
2019-03-30T09:35:36.736Z,83.00
2019-03-30T09:38:06.309Z,82.30
2019-03-30T09:40:35.873Z,81.50
2019-03-30T09:43:05.873Z,80.50
2019-03-30T09:45:35.520Z,80.10
2019-03-30T09:48:05.125Z,78.40
2019-03-30T09:50:34.492Z,78.90
2019-03-30T09:53:04.070Z,78.10
2019-03-30T09:55:33.552Z,77.70
2019-03-30T09:58:03.064Z,79.90
2019-03-30T10:00:32.671Z,80.10
2019-03-30T10:03:02.161Z,76.20
2019-03-30T10:05:31.941Z,73.00
2019-03-30T10:08:01.635Z,75.10
2019-03-30T10:10:31.098Z,75.10
2019-03-30T10:13:00.484Z,74.80
2019-03-30T10:15:29.942Z,76.10
2019-03-30T10:17:59.404Z,73.50
2019-03-30T10:20:28.785Z,74.50
2019-03-30T10:22:58.553Z,72.90
2019-03-30T10:25:28.347Z,73.30
2019-03-30T10:27:57.885Z,69.30
2019-03-30T10:30:27.359Z,65.80
2019-03-30T10:32:56.945Z,65.10
2019-03-30T10:35:26.553Z,65.90
2019-03-30T10:37:56.333Z,64.20
2019-03-30T10:40:25.861Z,62.10
2019-03-30T10:42:55.260Z,59.60
2019-03-30T10:45:24.865Z,60.10
2019-03-30T10:47:54.898Z,61.50
2019-03-30T10:50:24.430Z,59.00
2019-03-30T10:52:54.221Z,60.70
2019-03-30T10:55:23.611Z,62.50
2019-03-30T10:57:53.010Z,59.60
2019-03-30T11:00:36.881Z,57.60
2019-03-30T11:03:06.476Z,58.50
2019-03-30T11:05:36.002Z,56.20
2019-03-30T11:08:05.668Z,57.90
2019-03-30T11:10:35.161Z,56.50
2019-03-30T11:13:05.367Z,57.80
2019-03-30T11:15:34.897Z,56.00
2019-03-30T11:18:04.737Z,56.40
2019-03-30T11:20:34.186Z,55.80
2019-03-30T11:23:03.850Z,55.50
2019-03-30T11:25:33.385Z,55.40
2019-03-30T11:28:03.253Z,55.30
2019-03-30T11:30:33.193Z,54.40
2019-03-30T11:33:02.720Z,53.50
2019-03-30T11:35:32.300Z,57.10
2019-03-30T11:38:01.774Z,56.10
2019-03-30T11:40:31.353Z,54.90
2019-03-30T11:43:00.814Z,56.50
2019-03-30T11:45:30.282Z,54.70
2019-03-30T11:47:59.671Z,51.60
2019-03-30T11:50:29.134Z,52.40
2019-03-30T11:52:59.030Z,49.70
2019-03-30T11:55:28.492Z,51.40
2019-03-30T11:57:58.044Z,50.20
2019-03-30T12:00:27.505Z,50.40
2019-03-30T12:02:57.041Z,51.20
2019-03-30T12:05:26.509Z,47.70
2019-03-30T12:07:55.914Z,48.20
2019-03-30T12:10:25.419Z,49.50
2019-03-30T12:12:55.162Z,48.10
2019-03-30T12:15:24.906Z,46.60
2019-03-30T12:17:54.957Z,47.40
2019-03-30T12:20:24.422Z,47.80
2019-03-30T12:22:53.937Z,48.10
2019-03-30T12:25:34.753Z,46.70
2019-03-30T12:27:54.670Z,45.10
2019-03-30T12:30:24.141Z,44.80
2019-03-30T12:32:54.353Z,46.70
2019-03-30T12:35:24.006Z,43.30
2019-03-30T12:37:53.669Z,44.60
2019-03-30T12:40:23.220Z,42.90
2019-03-30T12:42:52.679Z,43.10
2019-03-30T12:45:22.538Z,41.60
2019-03-30T12:47:52.153Z,41.20
2019-03-30T12:50:21.751Z,40.50
2019-03-30T12:52:51.577Z,41.80
2019-03-30T12:55:21.038Z,39.80
2019-03-30T12:57:50.442Z,42.80
2019-03-30T13:00:19.989Z,41.60
2019-03-30T13:02:49.661Z,41.60
2019-03-30T13:05:19.444Z,40.70
2019-03-30T13:07:48.828Z,38.70
2019-03-30T13:10:18.368Z,40.20
2019-03-30T13:12:47.761Z,40.30
2019-03-30T13:15:17.301Z,36.80
2019-03-30T13:17:46.769Z,38.60
2019-03-30T13:20:16.569Z,37.80
2019-03-30T13:22:46.141Z,36.70
2019-03-30T13:25:15.709Z,38.30
2019-03-30T13:27:45.176Z,38.10
2019-03-30T13:30:15.021Z,39.40
2019-03-30T13:32:44.562Z,39.20
2019-03-30T13:35:14.097Z,37.80
2019-03-30T13:37:43.645Z,37.90
2019-03-30T13:40:13.234Z,39.70
2019-03-30T13:42:42.733Z,39.80
2019-03-30T13:45:12.572Z,37.60
2019-03-30T13:47:41.965Z,39.90
2019-03-30T13:50:11.707Z,38.80
2019-03-30T13:52:41.181Z,37.40
2019-03-30T13:55:10.820Z,37.60
2019-03-30T13:57:40.220Z,37.90
2019-03-30T14:00:10.407Z,36.40
2019-03-30T14:02:39.935Z,35.50
2019-03-30T14:05:09.607Z,33.70
2019-03-30T14:07:39.204Z,34.10
2019-03-30T14:10:18.101Z,32.10
2019-03-30T14:12:48.065Z,31.10
2019-03-30T14:15:17.599Z,32.30
2019-03-30T14:17:50.205Z,33.20
2019-03-30T14:20:20.073Z,33.50
2019-03-30T14:22:49.700Z,32.80
2019-03-30T14:25:19.461Z,31.00
2019-03-30T14:27:49.332Z,31.60
2019-03-30T14:30:19.376Z,31.10
2019-03-30T14:32:48.982Z,30.70
2019-03-30T14:35:18.737Z,31.70
2019-03-30T14:37:48.616Z,32.20
2019-03-30T14:40:18.086Z,31.00
2019-03-30T14:42:47.583Z,30.20
2019-03-30T14:45:17.118Z,31.00
2019-03-30T14:47:46.617Z,30.80
2019-03-30T14:50:16.475Z,29.70
2019-03-30T14:52:46.112Z,31.40
2019-03-30T14:55:15.685Z,29.80
2019-03-30T14:57:45.107Z,29.80
2019-03-30T15:00:14.965Z,29.50
2019-03-30T15:02:44.925Z,30.80
2019-03-30T15:05:14.765Z,29.80
2019-03-30T15:07:44.234Z,31.00
2019-03-30T15:10:13.977Z,30.80
2019-03-30T15:12:43.621Z,29.60
2019-03-30T15:15:14.395Z,31.00
2019-03-30T15:17:43.838Z,32.50
2019-03-30T15:20:13.501Z,32.40
2019-03-30T15:22:42.993Z,32.80
2019-03-30T15:25:13.756Z,32.40
2019-03-30T15:27:43.281Z,33.30
2019-03-30T15:30:13.940Z,33.80
2019-03-30T15:32:43.528Z,33.90
2019-03-30T15:35:13.094Z,33.70
2019-03-30T15:37:42.738Z,34.70
2019-03-30T15:40:12.557Z,33.90
2019-03-30T15:42:42.377Z,34.60
2019-03-30T15:45:12.209Z,34.20
2019-03-30T15:47:41.674Z,34.60
2019-03-30T15:50:12.029Z,33.70
2019-03-30T15:52:41.685Z,34.50
2019-03-30T15:55:11.558Z,33.60
2019-03-30T15:57:41.285Z,33.50
2019-03-30T16:00:14.053Z,33.50
2019-03-30T16:02:43.606Z,34.00
2019-03-30T16:05:15.482Z,34.20
2019-03-30T16:07:44.651Z,33.90
2019-03-30T16:10:14.504Z,35.30
2019-03-30T16:12:44.431Z,34.60
2019-03-30T16:15:14.021Z,34.90
2019-03-30T16:17:43.593Z,35.10
2019-03-30T16:20:13.242Z,35.00
2019-03-30T16:22:42.698Z,34.80
2019-03-30T16:25:12.242Z,34.70
2019-03-30T16:27:48.202Z,34.30
2019-03-30T16:30:18.060Z,34.60
2019-03-30T16:32:47.578Z,34.10
2019-03-30T16:35:17.044Z,34.10
2019-03-30T16:37:47.442Z,34.80
2019-03-30T16:40:17.265Z,33.60
2019-03-30T16:42:46.813Z,35.10
2019-03-30T16:45:16.430Z,34.50
2019-03-30T16:47:46.104Z,34.90
2019-03-30T16:50:15.650Z,35.90
2019-03-30T16:52:45.226Z,35.60
2019-03-30T16:55:14.829Z,35.40
2019-03-30T16:57:44.434Z,35.90
2019-03-30T17:00:14.290Z,35.20
2019-03-30T17:02:43.754Z,37.60
2019-03-30T17:05:13.700Z,37.20
2019-03-30T17:07:43.163Z,37.20
2019-03-30T17:10:12.913Z,39.40
2019-03-30T17:12:42.369Z,40.60
2019-03-30T17:15:12.257Z,41.20
2019-03-30T17:17:41.806Z,42.00
2019-03-30T17:20:11.636Z,42.00
2019-03-30T17:22:41.174Z,42.80
2019-03-30T17:25:10.744Z,41.10
2019-03-30T17:27:40.485Z,43.80
2019-03-30T17:30:11.152Z,43.50
2019-03-30T17:32:40.755Z,43.50
2019-03-30T17:35:10.309Z,47.20
2019-03-30T17:37:39.853Z,45.50
2019-03-30T17:40:10.210Z,46.80
2019-03-30T17:42:39.741Z,46.30
2019-03-30T17:45:10.900Z,47.60
2019-03-30T17:47:40.550Z,49.10
2019-03-30T17:50:10.494Z,49.00
2019-03-30T17:52:39.941Z,49.00
2019-03-30T17:55:11.260Z,49.40
2019-03-30T17:57:41.522Z,50.10
2019-03-30T18:00:15.122Z,49.50
2019-03-30T18:02:44.634Z,50.00
2019-03-30T18:05:14.227Z,51.70
2019-03-30T18:07:43.705Z,51.50
2019-03-30T18:10:13.757Z,51.80
2019-03-30T18:12:43.218Z,53.00
2019-03-30T18:15:13.079Z,52.10
2019-03-30T18:17:42.541Z,52.90
2019-03-30T18:20:12.585Z,53.70
2019-03-30T18:22:42.605Z,53.50
2019-03-30T18:25:13.009Z,53.50
2019-03-30T18:27:42.926Z,54.90
2019-03-30T18:30:13.600Z,55.10
2019-03-30T18:32:43.770Z,55.70
2019-03-30T18:35:13.606Z,55.60
2019-03-30T18:37:43.643Z,55.60
2019-03-30T18:40:20.056Z,55.70
2019-03-30T18:42:49.669Z,56.80
2019-03-30T18:45:27.101Z,56.70
2019-03-30T18:48:02.149Z,57.10
2019-03-30T18:50:31.991Z,56.80
2019-03-30T18:53:01.544Z,57.20
2019-03-30T18:55:31.028Z,57.10
2019-03-30T18:58:00.598Z,56.70
2019-03-30T19:00:30.378Z,57.90
2019-03-30T19:03:00.022Z,58.20
2019-03-30T19:05:29.598Z,58.30
2019-03-30T19:07:58.991Z,58.30
2019-03-30T19:10:28.866Z,58.10
2019-03-30T19:12:58.489Z,58.20
2019-03-30T19:15:28.175Z,59.20
2019-03-30T19:17:57.936Z,59.50
2019-03-30T19:20:27.511Z,60.40
2019-03-30T19:22:57.069Z,60.10
2019-03-30T19:25:29.599Z,60.80
2019-03-30T19:27:57.645Z,60.90
2019-03-30T19:30:27.462Z,60.60
2019-03-30T19:32:57.077Z,61.10
2019-03-30T19:35:26.622Z,61.50
2019-03-30T19:37:56.092Z,62.40
2019-03-30T19:40:25.638Z,62.90
2019-03-30T19:42:55.369Z,62.90
2019-03-30T19:45:24.901Z,64.00
2019-03-30T19:47:54.325Z,64.20
2019-03-30T19:50:24.493Z,64.00
2019-03-30T19:52:53.946Z,64.80
2019-03-30T19:55:23.878Z,64.20
2019-03-30T19:57:53.370Z,64.50
2019-03-30T20:00:23.044Z,64.60
2019-03-30T20:02:52.728Z,64.70
2019-03-30T20:05:22.442Z,65.60
2019-03-30T20:07:52.248Z,65.00
2019-03-30T20:10:21.865Z,65.60
2019-03-30T20:12:51.430Z,66.30
2019-03-30T20:15:20.893Z,66.10
2019-03-30T20:17:50.769Z,65.90
2019-03-30T20:20:20.225Z,66.50
2019-03-30T20:22:50.125Z,67.20
2019-03-30T20:25:19.714Z,67.20
2019-03-30T20:27:49.517Z,67.20
2019-03-30T20:30:19.353Z,67.80
2019-03-30T20:32:49.286Z,67.60
2019-03-30T20:35:18.858Z,67.80
2019-03-30T20:37:48.475Z,68.40
2019-03-30T20:40:18.329Z,68.80
2019-03-30T20:42:48.069Z,68.80
2019-03-30T20:45:17.610Z,69.30
2019-03-30T20:47:46.989Z,69.40
2019-03-30T20:50:17.009Z,69.30
2019-03-30T20:52:47.030Z,69.90
2019-03-30T20:55:16.781Z,70.60
2019-03-30T20:57:46.354Z,71.50
2019-03-30T21:00:16.092Z,71.60
2019-03-30T21:02:45.577Z,72.10
2019-03-30T21:05:15.261Z,72.50
2019-03-30T21:07:44.734Z,72.60
2019-03-30T21:10:14.594Z,72.30
2019-03-30T21:12:44.082Z,72.70
2019-03-30T21:15:13.846Z,72.90
2019-03-30T21:17:48.271Z,73.00
2019-03-30T21:20:18.207Z,73.40
2019-03-30T21:22:48.142Z,73.80
2019-03-30T21:25:17.913Z,74.30
2019-03-30T21:27:47.846Z,74.10
2019-03-30T21:30:17.984Z,74.50
2019-03-30T21:32:47.565Z,75.00
2019-03-30T21:35:17.093Z,75.40
2019-03-30T21:37:46.638Z,75.40
2019-03-30T21:40:16.102Z,75.50
2019-03-30T21:42:45.590Z,75.80
2019-03-30T21:45:15.205Z,75.90
2019-03-30T21:47:44.749Z,76.80
2019-03-30T21:50:14.721Z,77.60
2019-03-30T21:52:44.358Z,77.00
2019-03-30T21:55:13.935Z,76.90
2019-03-30T21:57:43.450Z,77.80
2019-03-30T22:00:14.530Z,77.50
2019-03-30T22:02:44.189Z,78.30
2019-03-30T22:05:13.724Z,78.10
2019-03-30T22:07:44.537Z,79.50
2019-03-30T22:10:17.061Z,79.60
2019-03-30T22:12:46.785Z,79.80
2019-03-30T22:15:19.601Z,80.00
2019-03-30T22:17:48.991Z,80.20
2019-03-30T22:20:21.274Z,80.30
2019-03-30T22:22:50.063Z,80.50
2019-03-30T22:25:19.610Z,80.80
2019-03-30T22:27:49.175Z,80.90
2019-03-30T22:30:25.088Z,80.90
2019-03-30T22:32:50.041Z,81.70
2019-03-30T22:35:20.190Z,82.10
2019-03-30T22:37:49.789Z,82.00
2019-03-30T22:40:19.267Z,82.30
2019-03-30T22:42:48.822Z,82.60
2019-03-30T22:45:18.379Z,82.70
2019-03-30T22:47:47.885Z,82.70
2019-03-30T22:50:18.070Z,83.20
2019-03-30T22:52:49.134Z,83.60
2019-03-30T22:55:18.738Z,83.50
2019-03-30T22:57:48.222Z,84.30
2019-03-30T23:00:39.029Z,83.80
2019-03-30T23:03:07.814Z,83.70
2019-03-30T23:05:37.455Z,84.00
2019-03-30T23:08:06.982Z,84.70
2019-03-30T23:10:36.753Z,85.10
2019-03-30T23:13:06.142Z,85.00
2019-03-30T23:15:35.784Z,84.90
2019-03-30T23:18:05.487Z,85.00
2019-03-30T23:20:35.206Z,84.70
2019-03-30T23:23:04.933Z,85.00
2019-03-30T23:25:34.481Z,85.40
2019-03-30T23:28:04.010Z,85.30
2019-03-30T23:30:33.622Z,85.50
2019-03-30T23:33:02.984Z,85.90
2019-03-30T23:35:32.462Z,85.80
2019-03-30T23:38:02.505Z,86.10
2019-03-30T23:40:31.926Z,87.10
2019-03-30T23:43:01.491Z,86.30
2019-03-30T23:45:31.201Z,86.70
2019-03-30T23:48:01.076Z,86.80
2019-03-30T23:50:30.574Z,87.20
2019-03-30T23:53:00.052Z,87.20
2019-03-30T23:55:30.892Z,87.30
2019-03-30T23:58:00.357Z,87.80
